Time;durP1;ratioP1;P1;durP2;ratioP2;P2;SDS_P1;SDS_P2;PMS_P1;PMS_P2;Temp;Humidity;BMP_temperature;BMP_pressure;BME280_temperature;BME280_humidity;BME280_pressure;Samples;Min_cycle;Max_cycle;Signal;HPM_P1;HPM_P2
2023/09/04 00:01:37;;;;;;;9.07;6.40;;;;;;;;;;5031881;28;20465;-59
2023/09/04 00:04:03;;;;;;;51.53;6.37;;;;;;;;;;5031400;28;20058;-59
2023/09/04 00:06:30;;;;;;;82.10;7.47;;;;;;;;;;5029937;28;20132;-59
2023/09/04 00:08:57;;;;;;;51.70;4.73;;;;;;;;;;5030276;28;20041;-59
2023/09/04 00:11:24;;;;;;;29.83;5.00;;;;;;;;;;5030888;28;20435;-59
2023/09/04 00:13:50;;;;;;;5.83;3.60;;;;;;;;;;5031608;28;20049;-59
2023/09/04 00:16:16;;;;;;;10.27;4.50;;;;;;;;;;5031154;28;20495;-59
2023/09/04 00:18:42;;;;;;;11.47;5.63;;;;;;;;;;5030824;28;20187;-59
2023/09/04 00:21:08;;;;;;;15.53;6.80;;;;;;;;;;5030583;28;20071;-59
2023/09/04 00:23:34;;;;;;;26.40;6.70;;;;;;;;;;5030674;28;20166;-59
2023/09/04 00:26:00;;;;;;;6.00;4.70;;;;;;;;;;5030789;28;20049;-59
2023/09/04 00:28:29;;;;;;;5.83;4.93;;;;;;;;;;5031035;28;20573;-59
2023/09/04 00:30:56;;;;;;;10.53;6.07;;;;;;;;;;5030418;28;20394;-59
2023/09/04 00:33:22;;;;;;;24.13;7.37;;;;;;;;;;5030917;28;20057;-59
2023/09/04 00:35:48;;;;;;;11.73;5.30;;;;;;;;;;5030307;28;20041;-60
2023/09/04 00:38:14;;;;;;;10.47;5.47;;;;;;;;;;5030243;28;20136;-60
2023/09/04 00:40:40;;;;;;;10.17;6.50;;;;;;;;;;5030671;28;20396;-59
2023/09/04 00:43:06;;;;;;;22.83;9.23;;;;;;;;;;5030758;28;20053;-60
2023/09/04 00:45:32;;;;;;;8.40;6.10;;;;;;;;;;5030715;28;20038;-59
2023/09/04 00:47:58;;;;;;;12.70;7.67;;;;;;;;;;5029683;28;20081;-59
2023/09/04 00:50:24;;;;;;;17.50;6.67;;;;;;;;;;5029293;28;20045;-59
2023/09/04 00:52:51;;;;;;;19.13;6.80;;;;;;;;;;5030423;28;20487;-59
2023/09/04 00:55:18;;;;;;;30.07;7.00;;;;;;;;;;5030119;28;20538;-59
2023/09/04 00:57:44;;;;;;;6.40;4.73;;;;;;;;;;5030064;28;20065;-59
2023/09/04 01:00:13;;;;;;;8.90;5.20;;;;;;;;;;5030188;28;20411;-60
2023/09/04 01:02:40;;;;;;;15.47;5.73;;;;;;;;;;5030001;28;20073;-59
2023/09/04 01:05:06;;;;;;;10.83;6.90;;;;;;;;;;5029917;28;20053;-59
2023/09/04 01:07:32;;;;;;;15.90;7.87;;;;;;;;;;5029584;28;20046;-59
2023/09/04 01:09:59;;;;;;;32.73;9.30;;;;;;;;;;5029536;28;20049;-59
2023/09/04 01:12:30;;;;;;;13.83;8.50;;;;;;;;;;5029406;28;20059;-59
2023/09/04 01:14:56;;;;;;;10.93;6.80;;;;;;;;;;5028816;28;20046;-59
2023/09/04 01:17:23;;;;;;;10.07;6.97;;;;;;;;;;5028884;28;20124;-61
2023/09/04 01:19:49;;;;;;;8.53;6.07;;;;;;;;;;5029880;28;20447;-59
2023/09/04 01:22:15;;;;;;;12.20;8.67;;;;;;;;;;5028849;28;20052;-59
2023/09/04 01:24:42;;;;;;;19.67;12.07;;;;;;;;;;5030089;28;20033;-59
2023/09/04 01:27:14;;;;;;;18.77;11.33;;;;;;;;;;5029200;28;20053;-59
2023/09/04 01:29:42;;;;;;;14.00;9.93;;;;;;;;;;5030111;28;20048;-59
2023/09/04 01:32:15;;;;;;;21.60;12.83;;;;;;;;;;5029388;28;20136;-59
2023/09/04 01:34:42;;;;;;;18.30;11.10;;;;;;;;;;5029647;28;20056;-59
2023/09/04 01:37:09;;;;;;;18.50;12.37;;;;;;;;;;5029215;28;20135;-59
2023/09/04 01:39:36;;;;;;;26.03;13.73;;;;;;;;;;5029720;28;20046;-59
2023/09/04 01:42:02;;;;;;;18.47;10.83;;;;;;;;;;5029508;28;20041;-59
2023/09/04 01:44:28;;;;;;;12.17;8.30;;;;;;;;;;5029077;28;20045;-59
2023/09/04 01:46:54;;;;;;;13.40;8.13;;;;;;;;;;5028859;28;20174;-59
2023/09/04 01:49:20;;;;;;;11.03;7.93;;;;;;;;;;5029780;28;20424;-59
2023/09/04 01:51:46;;;;;;;7.93;5.87;;;;;;;;;;5029463;28;20041;-59
2023/09/04 01:54:12;;;;;;;8.30;6.40;;;;;;;;;;5027984;28;20095;-59
2023/09/04 01:56:38;;;;;;;10.57;7.27;;;;;;;;;;5029232;28;20053;-59
2023/09/04 01:59:04;;;;;;;11.67;7.40;;;;;;;;;;5028690;28;20574;-59
2023/09/04 02:01:30;;;;;;;13.37;8.40;;;;;;;;;;5029138;28;20042;-59
2023/09/04 02:03:57;;;;;;;11.70;7.67;;;;;;;;;;5029586;28;20045;-59
2023/09/04 02:06:23;;;;;;;9.40;6.47;;;;;;;;;;5028884;28;20567;-59
2023/09/04 02:08:49;;;;;;;7.53;4.80;;;;;;;;;;5029016;28;20519;-59
2023/09/04 02:11:15;;;;;;;16.07;7.30;;;;;;;;;;5028495;28;20041;-59
2023/09/04 02:13:41;;;;;;;13.63;6.93;;;;;;;;;;5028833;28;20100;-59
2023/09/04 02:16:07;;;;;;;20.97;9.77;;;;;;;;;;5028415;28;20561;-59
2023/09/04 02:18:33;;;;;;;21.83;7.40;;;;;;;;;;5029137;28;20073;-59
2023/09/04 02:21:00;;;;;;;16.20;8.80;;;;;;;;;;5028096;28;20411;-59
2023/09/04 02:23:26;;;;;;;11.47;7.63;;;;;;;;;;5028438;28;20542;-59
2023/09/04 02:25:52;;;;;;;11.23;7.83;;;;;;;;;;5027460;28;20100;-59
2023/09/04 02:28:18;;;;;;;15.30;8.73;;;;;;;;;;5026290;28;20430;-59
2023/09/04 02:30:44;;;;;;;16.53;7.53;;;;;;;;;;5028457;28;20037;-59
2023/09/04 02:33:10;;;;;;;66.43;13.87;;;;;;;;;;5028586;28;20045;-59
2023/09/04 02:35:36;;;;;;;15.67;9.00;;;;;;;;;;5028593;28;20137;-59
2023/09/04 02:38:02;;;;;;;59.63;9.40;;;;;;;;;;5026810;28;20140;-59
2023/09/04 02:40:28;;;;;;;14.63;7.63;;;;;;;;;;5034994;28;20541;-59
2023/09/04 02:42:54;;;;;;;20.33;8.63;;;;;;;;;;5035791;28;20046;-59
2023/09/04 02:45:20;;;;;;;17.87;10.23;;;;;;;;;;5027042;28;20476;-59
2023/09/04 02:47:46;;;;;;;21.07;12.53;;;;;;;;;;5025875;28;20045;-59
2023/09/04 02:50:12;;;;;;;23.70;13.23;;;;;;;;;;5009099;28;20069;-59
2023/09/04 02:52:38;;;;;;;34.13;17.10;;;;;;;;;;5008595;28;20078;-59
2023/09/04 02:55:04;;;;;;;15.87;9.87;;;;;;;;;;5007536;28;20133;-59
2023/09/04 02:57:33;;;;;;;17.90;10.50;;;;;;;;;;5022287;28;20130;-59
2023/09/04 03:00:00;;;;;;;21.50;11.30;;;;;;;;;;5025483;28;20068;-59
2023/09/04 03:02:26;;;;;;;15.80;9.50;;;;;;;;;;5028250;28;20516;-59
2023/09/04 03:04:53;;;;;;;10.13;6.57;;;;;;;;;;5028012;28;20515;-59
2023/09/04 03:07:19;;;;;;;7.97;4.93;;;;;;;;;;5026634;28;20045;-59
2023/09/04 03:09:45;;;;;;;19.87;10.90;;;;;;;;;;5027733;28;20053;-59
2023/09/04 03:12:10;;;;;;;15.13;9.73;;;;;;;;;;5028023;28;20045;-59
2023/09/04 03:14:36;;;;;;;17.27;10.50;;;;;;;;;;5027849;28;20254;-59
2023/09/04 03:17:04;;;;;;;21.03;11.20;;;;;;;;;;5027132;28;20077;-59
2023/09/04 03:19:30;;;;;;;18.40;10.87;;;;;;;;;;5028511;28;20046;-59
2023/09/04 03:21:57;;;;;;;23.97;11.23;;;;;;;;;;5027527;28;20053;-59
2023/09/04 03:24:24;;;;;;;22.20;11.83;;;;;;;;;;5028461;28;20128;-60
2023/09/04 03:26:50;;;;;;;13.40;7.83;;;;;;;;;;5027169;28;20411;-59
2023/09/04 03:29:16;;;;;;;15.73;8.83;;;;;;;;;;5026843;28;20045;-59
2023/09/04 03:31:42;;;;;;;18.87;9.23;;;;;;;;;;5026913;28;20053;-59
2023/09/04 03:34:08;;;;;;;11.00;7.43;;;;;;;;;;5027706;28;20056;-59
2023/09/04 03:36:34;;;;;;;20.80;8.67;;;;;;;;;;5026771;28;20499;-59
2023/09/04 03:39:00;;;;;;;12.40;7.13;;;;;;;;;;5027841;28;20064;-59
2023/09/04 03:41:26;;;;;;;22.33;11.40;;;;;;;;;;5028111;28;20065;-59
2023/09/04 03:43:52;;;;;;;13.10;8.03;;;;;;;;;;5027577;28;20091;-59
2023/09/04 03:46:18;;;;;;;10.43;7.73;;;;;;;;;;5025360;28;20084;-60
2023/09/04 03:48:44;;;;;;;10.57;7.73;;;;;;;;;;5027424;28;20512;-59
2023/09/04 03:51:10;;;;;;;23.00;8.00;;;;;;;;;;5027695;28;20045;-59
2023/09/04 03:53:36;;;;;;;41.97;11.47;;;;;;;;;;5027653;28;20041;-59
2023/09/04 03:56:03;;;;;;;35.80;12.77;;;;;;;;;;5026695;28;20384;-59
2023/09/04 03:58:30;;;;;;;9.33;7.80;;;;;;;;;;5026739;28;20037;-59
2023/09/04 04:00:59;;;;;;;15.77;8.63;;;;;;;;;;5027813;28;20052;-59
2023/09/04 04:03:25;;;;;;;15.50;10.10;;;;;;;;;;5027966;28;20049;-59
2023/09/04 04:05:51;;;;;;;14.87;9.13;;;;;;;;;;5028010;28;20077;-59
2023/09/04 04:08:17;;;;;;;18.43;9.53;;;;;;;;;;5025679;28;20072;-59
2023/09/04 04:10:44;;;;;;;24.70;12.63;;;;;;;;;;5027231;28;20041;-59
2023/09/04 04:13:10;;;;;;;16.80;11.40;;;;;;;;;;5027826;28;20077;-59
2023/09/04 04:15:38;;;;;;;17.17;10.57;;;;;;;;;;5027724;28;20388;-59
2023/09/04 04:18:04;;;;;;;14.83;10.47;;;;;;;;;;5027917;28;20098;-59
2023/09/04 04:20:30;;;;;;;18.00;10.70;;;;;;;;;;5031121;28;20041;-59
2023/09/04 04:22:56;;;;;;;25.10;13.47;;;;;;;;;;5031325;28;20171;-59
2023/09/04 04:25:22;;;;;;;18.17;9.70;;;;;;;;;;5028447;28;20049;-60
2023/09/04 04:27:48;;;;;;;40.63;13.03;;;;;;;;;;5029720;28;20077;-59
2023/09/04 04:30:14;;;;;;;55.33;15.50;;;;;;;;;;5031220;28;20204;-59
2023/09/04 04:32:40;;;;;;;79.20;17.30;;;;;;;;;;5030724;28;20077;-60
2023/09/04 04:35:07;;;;;;;69.13;12.43;;;;;;;;;;5030565;28;20053;-59
2023/09/04 04:37:33;;;;;;;64.50;11.63;;;;;;;;;;5030426;28;20132;-59
2023/09/04 04:40:00;;;;;;;47.00;12.77;;;;;;;;;;5030495;28;20097;-59
2023/09/04 04:42:26;;;;;;;35.27;10.47;;;;;;;;;;5030384;28;20094;-59
2023/09/04 04:44:53;;;;;;;48.20;13.57;;;;;;;;;;5029932;28;20528;-59
2023/09/04 04:47:19;;;;;;;33.87;11.80;;;;;;;;;;5029751;28;20045;-59
2023/09/04 04:49:45;;;;;;;49.83;13.37;;;;;;;;;;5030013;28;20080;-59
2023/09/04 04:52:11;;;;;;;61.30;12.17;;;;;;;;;;5030192;28;20095;-59
2023/09/04 04:54:37;;;;;;;107.10;17.60;;;;;;;;;;5029759;28;20042;-59
2023/09/04 04:57:03;;;;;;;125.37;16.30;;;;;;;;;;5028818;28;20045;-59
2023/09/04 04:59:29;;;;;;;69.27;13.13;;;;;;;;;;5030306;28;20041;-59
2023/09/04 05:01:58;;;;;;;42.30;9.70;;;;;;;;;;5030400;28;20403;-59
2023/09/04 05:04:25;;;;;;;63.30;11.27;;;;;;;;;;5030438;28;20053;-59
2023/09/04 05:06:51;;;;;;;90.27;10.20;;;;;;;;;;5028215;28;20049;-59
2023/09/04 05:09:17;;;;;;;88.10;11.80;;;;;;;;;;5029700;28;20172;-59
2023/09/04 05:11:42;;;;;;;57.07;13.40;;;;;;;;;;5024162;28;20100;-59
2023/09/04 05:14:08;;;;;;;49.77;11.87;;;;;;;;;;5025600;28;20184;-59
2023/09/04 05:16:35;;;;;;;49.83;14.47;;;;;;;;;;5026700;28;20041;-59
2023/09/04 05:19:01;;;;;;;88.00;12.30;;;;;;;;;;5027775;28;20206;-59
2023/09/04 05:21:27;;;;;;;28.43;13.20;;;;;;;;;;5026854;28;20559;-59
2023/09/04 05:23:53;;;;;;;30.80;13.67;;;;;;;;;;5028202;28;20175;-59
2023/09/04 05:26:19;;;;;;;27.07;13.87;;;;;;;;;;5028715;28;20416;-59
2023/09/04 05:28:45;;;;;;;25.00;14.73;;;;;;;;;;5029150;28;20328;-59
2023/09/04 05:31:11;;;;;;;26.00;15.07;;;;;;;;;;5029439;28;20052;-60
2023/09/04 05:33:37;;;;;;;34.73;15.97;;;;;;;;;;5028577;28;20048;-59
2023/09/04 05:36:03;;;;;;;32.33;17.53;;;;;;;;;;5030044;28;20159;-60
2023/09/04 05:38:29;;;;;;;38.60;19.80;;;;;;;;;;5030074;28;20049;-59
2023/09/04 05:40:55;;;;;;;43.80;20.53;;;;;;;;;;5029518;28;20062;-59
2023/09/04 05:43:22;;;;;;;50.53;22.90;;;;;;;;;;5029444;28;20061;-59
2023/09/04 05:45:49;;;;;;;44.43;22.70;;;;;;;;;;5025438;28;20084;-59
2023/09/04 05:48:15;;;;;;;51.17;24.70;;;;;;;;;;5029594;28;20462;-59
2023/09/04 05:50:41;;;;;;;60.30;27.07;;;;;;;;;;5027315;28;20041;-59
2023/09/04 05:53:07;;;;;;;58.70;27.80;;;;;;;;;;5029570;28;20094;-59
2023/09/04 05:55:39;;;;;;;67.47;29.67;;;;;;;;;;5029480;28;20160;-59
2023/09/04 05:58:06;;;;;;;56.50;27.40;;;;;;;;;;5025851;28;20522;-59
2023/09/04 06:00:32;;;;;;;71.73;31.60;;;;;;;;;;5028172;28;20474;-59
2023/09/04 06:02:59;;;;;;;71.37;30.90;;;;;;;;;;5028810;28;20050;-59
2023/09/04 06:05:25;;;;;;;39.13;22.63;;;;;;;;;;5028872;28;20407;-60
2023/09/04 06:07:51;;;;;;;59.47;28.47;;;;;;;;;;5028877;28;20125;-59
2023/09/04 06:10:17;;;;;;;58.50;28.23;;;;;;;;;;5032829;28;20143;-59
2023/09/04 06:12:43;;;;;;;59.20;26.90;;;;;;;;;;5035821;28;20041;-59
2023/09/04 06:15:09;;;;;;;39.37;21.53;;;;;;;;;;5027452;28;20519;-59
2023/09/04 06:17:35;;;;;;;55.60;25.80;;;;;;;;;;5039029;28;20056;-59
2023/09/04 06:20:03;;;;;;;62.47;28.30;;;;;;;;;;5048350;28;20095;-59
2023/09/04 06:22:28;;;;;;;57.00;26.17;;;;;;;;;;5036423;28;20091;-59
2023/09/04 06:24:54;;;;;;;34.53;18.37;;;;;;;;;;5037058;28;20041;-59
2023/09/04 06:27:20;;;;;;;31.03;19.57;;;;;;;;;;5048022;28;20059;-59
2023/09/04 06:29:46;;;;;;;78.97;36.40;;;;;;;;;;5041327;28;20689;-59
2023/09/04 06:32:14;;;;;;;51.03;26.70;;;;;;;;;;5027665;28;20041;-59
2023/09/04 06:34:40;;;;;;;59.60;29.53;;;;;;;;;;5033063;28;20111;-59
2023/09/04 06:37:06;;;;;;;49.93;28.50;;;;;;;;;;5030990;28;20610;-60
2023/09/04 06:39:32;;;;;;;48.43;28.27;;;;;;;;;;5043870;28;20094;-59
2023/09/04 06:41:58;;;;;;;54.30;27.43;;;;;;;;;;5031801;28;20057;-59
2023/09/04 06:44:24;;;;;;;43.07;24.63;;;;;;;;;;5042524;28;20684;-59
2023/09/04 06:46:50;;;;;;;64.73;34.23;;;;;;;;;;5026677;28;20099;-59
2023/09/04 06:49:16;;;;;;;43.53;25.00;;;;;;;;;;5042214;28;20091;-59
2023/09/04 06:51:42;;;;;;;54.03;30.40;;;;;;;;;;5036602;28;20050;-59
2023/09/04 06:54:08;;;;;;;54.37;30.27;;;;;;;;;;5030289;28;20505;-59
2023/09/04 06:56:34;;;;;;;49.07;29.33;;;;;;;;;;5025235;28;20153;-59
2023/09/04 06:59:00;;;;;;;46.73;28.67;;;;;;;;;;5028352;28;20041;-61
2023/09/04 07:01:26;;;;;;;37.27;25.30;;;;;;;;;;5028152;28;20049;-60
2023/09/04 07:03:52;;;;;;;37.77;23.17;;;;;;;;;;5030794;28;20048;-61
2023/09/04 07:06:18;;;;;;;31.97;20.40;;;;;;;;;;5027354;28;20056;-60
2023/09/04 07:08:44;;;;;;;43.83;27.47;;;;;;;;;;5026896;28;20061;-60
2023/09/04 07:11:10;;;;;;;28.27;20.30;;;;;;;;;;5032401;28;20044;-60
2023/09/04 07:13:36;;;;;;;23.13;16.40;;;;;;;;;;5034319;28;20099;-61
2023/09/04 07:16:02;;;;;;;21.03;17.17;;;;;;;;;;5024268;28;20484;-60
2023/09/04 07:18:28;;;;;;;25.97;19.47;;;;;;;;;;5028789;28;20448;-60
2023/09/04 07:20:54;;;;;;;20.10;15.50;;;;;;;;;;5045418;28;20083;-60
2023/09/04 07:23:20;;;;;;;24.80;18.93;;;;;;;;;;5045135;28;20106;-60
2023/09/04 07:25:46;;;;;;;18.77;16.77;;;;;;;;;;5036063;28;20074;-60
2023/09/04 07:28:12;;;;;;;25.67;17.63;;;;;;;;;;5031924;28;20124;-61
2023/09/04 07:30:38;;;;;;;26.90;20.27;;;;;;;;;;5039190;28;20094;-60
2023/09/04 07:33:04;;;;;;;18.80;14.93;;;;;;;;;;5027468;28;20046;-61
2023/09/04 07:35:30;;;;;;;22.00;18.67;;;;;;;;;;5030839;28;20475;-60
2023/09/04 07:37:57;;;;;;;18.33;15.73;;;;;;;;;;5036244;28;20025;-60
2023/09/04 07:40:23;;;;;;;22.87;17.63;;;;;;;;;;5041039;28;20053;-60
2023/09/04 07:42:49;;;;;;;15.80;14.13;;;;;;;;;;5026697;28;20108;-60
2023/09/04 07:45:16;;;;;;;19.43;14.20;;;;;;;;;;5034334;28;20049;-60
2023/09/04 07:47:42;;;;;;;15.37;12.17;;;;;;;;;;5027285;28;20049;-60
2023/09/04 07:50:08;;;;;;;16.03;12.87;;;;;;;;;;5042635;28;20187;-60
2023/09/04 07:52:34;;;;;;;15.90;14.13;;;;;;;;;;5042378;28;20040;-59
2023/09/04 07:55:00;;;;;;;17.73;14.27;;;;;;;;;;5051032;28;20048;-60
2023/09/04 07:57:26;;;;;;;14.07;10.43;;;;;;;;;;5046458;28;20077;-59
2023/09/04 07:59:52;;;;;;;14.53;10.57;;;;;;;;;;5029925;28;20713;-59
2023/09/04 08:02:17;;;;;;;10.20;9.10;;;;;;;;;;5029133;28;20423;-59
2023/09/04 08:04:43;;;;;;;13.20;10.00;;;;;;;;;;5027648;28;20041;-59
2023/09/04 08:07:09;;;;;;;12.03;9.20;;;;;;;;;;5030550;28;20075;-59
2023/09/04 08:09:36;;;;;;;8.73;7.53;;;;;;;;;;5031907;28;20041;-59
2023/09/04 08:12:02;;;;;;;11.50;8.40;;;;;;;;;;5029774;28;20103;-60
2023/09/04 08:14:33;;;;;;;11.50;9.47;;;;;;;;;;5031301;28;20045;-60
2023/09/04 08:16:59;;;;;;;9.60;7.20;;;;;;;;;;5045605;28;20048;-60
2023/09/04 08:19:25;;;;;;;9.40;7.00;;;;;;;;;;5047034;28;20049;-60
2023/09/04 08:21:51;;;;;;;9.13;7.00;;;;;;;;;;5043878;28;20048;-60
2023/09/04 08:24:17;;;;;;;10.23;6.33;;;;;;;;;;5038204;28;20041;-61
2023/09/04 08:26:44;;;;;;;9.13;7.03;;;;;;;;;;5030640;28;20057;-61
2023/09/04 08:29:10;;;;;;;6.47;5.80;;;;;;;;;;5039512;28;20049;-61
2023/09/04 08:31:36;;;;;;;9.50;5.73;;;;;;;;;;5035269;28;20193;-61
2023/09/04 08:34:02;;;;;;;6.50;4.70;;;;;;;;;;5034952;28;21276;-60
2023/09/04 08:36:28;;;;;;;8.67;4.30;;;;;;;;;;5041763;28;20095;-60
2023/09/04 08:38:54;;;;;;;6.47;3.87;;;;;;;;;;5029180;28;20132;-61
2023/09/04 08:41:21;;;;;;;6.17;3.30;;;;;;;;;;5029165;28;20136;-61
2023/09/04 08:43:49;;;;;;;5.67;2.93;;;;;;;;;;5028379;28;20050;-61
2023/09/04 08:46:16;;;;;;;3.77;2.83;;;;;;;;;;5028703;28;20446;-61
2023/09/04 08:48:44;;;;;;;4.33;2.53;;;;;;;;;;5028586;28;20076;-61
2023/09/04 08:51:10;;;;;;;5.33;2.67;;;;;;;;;;5029079;28;20538;-61
2023/09/04 08:53:36;;;;;;;5.43;2.77;;;;;;;;;;5030202;28;20583;-61
2023/09/04 08:56:02;;;;;;;5.67;2.40;;;;;;;;;;5030475;28;20046;-61
2023/09/04 08:58:29;;;;;;;3.23;2.20;;;;;;;;;;5030213;28;20494;-61
2023/09/04 09:00:55;;;;;;;6.23;2.87;;;;;;;;;;5029631;28;20076;-61
2023/09/04 09:03:22;;;;;;;3.53;2.03;;;;;;;;;;5028294;28;20034;-61
2023/09/04 09:05:48;;;;;;;3.00;2.30;;;;;;;;;;5027437;28;20120;-61
2023/09/04 09:08:17;;;;;;;4.70;2.13;;;;;;;;;;5029959;28;20107;-61
2023/09/04 09:10:45;;;;;;;3.70;2.10;;;;;;;;;;5029842;28;20045;-60
2023/09/04 09:13:13;;;;;;;5.00;2.20;;;;;;;;;;5029807;28;20052;-61
2023/09/04 09:15:39;;;;;;;3.23;1.67;;;;;;;;;;5029689;28;20088;-60
2023/09/04 09:18:05;;;;;;;5.30;2.03;;;;;;;;;;5029958;28;20056;-61
2023/09/04 09:20:32;;;;;;;3.83;2.00;;;;;;;;;;5029947;28;20042;-61
2023/09/04 09:22:58;;;;;;;5.00;2.17;;;;;;;;;;5029367;28;20385;-61
2023/09/04 09:25:25;;;;;;;2.90;1.90;;;;;;;;;;5029732;28;20049;-61
2023/09/04 09:27:51;;;;;;;3.60;1.80;;;;;;;;;;5029246;28;20053;-60
2023/09/04 09:30:17;;;;;;;2.90;2.00;;;;;;;;;;5029521;28;20053;-60
2023/09/04 09:32:43;;;;;;;5.73;2.30;;;;;;;;;;5029415;28;20045;-60
2023/09/04 09:35:10;;;;;;;3.17;2.20;;;;;;;;;;5029675;28;20056;-60
2023/09/04 09:37:36;;;;;;;5.63;2.23;;;;;;;;;;5028941;28;20084;-60
2023/09/04 09:40:05;;;;;;;3.50;1.80;;;;;;;;;;5029042;28;20072;-61
2023/09/04 09:42:31;;;;;;;5.70;2.40;;;;;;;;;;5029594;28;20049;-61
2023/09/04 09:44:57;;;;;;;4.45;2.22;;;;;;;;;;5029399;28;20419;-61
2023/09/04 09:47:23;;;;;;;4.15;2.33;;;;;;;;;;5029165;28;20053;-60
2023/09/04 09:49:49;;;;;;;5.30;2.30;;;;;;;;;;5029160;28;20042;-61
2023/09/04 09:52:16;;;;;;;4.22;2.20;;;;;;;;;;5028376;28;20486;-61
2023/09/04 09:54:45;;;;;;;3.33;2.42;;;;;;;;;;5029092;28;20046;-61
2023/09/04 09:57:13;;;;;;;4.70;2.22;;;;;;;;;;5029407;28;21080;-62
2023/09/04 09:59:44;;;;;;;5.03;3.13;;;;;;;;;;5029191;28;20045;-59
2023/09/04 10:02:10;;;;;;;4.40;2.20;;;;;;;;;;5028767;28;20523;-59
2023/09/04 10:04:38;;;;;;;4.85;2.40;;;;;;;;;;5028830;28;20069;-58
2023/09/04 10:07:05;;;;;;;5.55;2.60;;;;;;;;;;5029230;28;20057;-59
2023/09/04 10:09:51;;;;;;;3.33;2.60;;;;;;;;;;5029436;28;20042;-59
2023/09/04 10:12:30;;;;;;;5.15;2.97;;;;;;;;;;5028781;28;20068;-60
2023/09/04 10:14:57;;;;;;;7.43;2.97;;;;;;;;;;5028267;28;20056;-59
2023/09/04 10:17:43;;;;;;;3.90;2.63;;;;;;;;;;5028480;28;20041;-59
2023/09/04 10:20:10;;;;;;;5.35;2.88;;;;;;;;;;5028735;28;20132;-59
2023/09/04 10:23:03;;;;;;;3.10;2.40;;;;;;;;;;5028706;28;20480;-59
2023/09/04 10:25:37;;;;;;;4.70;2.83;;;;;;;;;;5026955;28;20096;-59
2023/09/04 10:28:04;;;;;;;3.22;2.08;;;;;;;;;;5029075;28;20088;-60
2023/09/04 10:30:31;;;;;;;3.40;1.90;;;;;;;;;;5028820;28;20045;-59
2023/09/04 10:32:57;;;;;;;3.22;2.40;;;;;;;;;;5028331;28;20041;-60
2023/09/04 10:35:23;;;;;;;3.78;2.70;;;;;;;;;;5028477;28;20049;-60
2023/09/04 10:37:49;;;;;;;3.05;2.40;;;;;;;;;;5028466;28;20041;-60
2023/09/04 10:40:16;;;;;;;3.58;2.65;;;;;;;;;;5028258;28;20068;-60
2023/09/04 10:42:42;;;;;;;3.05;1.88;;;;;;;;;;5028928;28;20054;-60
2023/09/04 10:45:12;;;;;;;3.35;2.28;;;;;;;;;;5028243;28;20042;-60
2023/09/04 10:47:50;;;;;;;2.97;1.73;;;;;;;;;;5028301;28;20451;-59
2023/09/04 10:50:49;;;;;;;3.65;2.50;;;;;;;;;;5027873;28;20511;-60
2023/09/04 10:53:31;;;;;;;3.70;2.05;;;;;;;;;;5015968;28;20195;-59
2023/09/04 10:56:26;;;;;;;4.13;2.25;;;;;;;;;;5028041;28;20703;-60
2023/09/04 10:59:10;;;;;;;3.60;1.95;;;;;;;;;;5023359;28;20046;-59
2023/09/04 11:01:37;;;;;;;2.75;2.13;;;;;;;;;;5028247;28;20046;-60
2023/09/04 11:04:07;;;;;;;2.80;2.33;;;;;;;;;;5028272;28;20124;-60
2023/09/04 11:06:37;;;;;;;5.22;1.85;;;;;;;;;;5028169;28;20045;-60
2023/09/04 11:09:04;;;;;;;4.03;1.48;;;;;;;;;;5027889;28;20593;-59
2023/09/04 11:11:31;;;;;;;3.42;1.88;;;;;;;;;;5027981;28;20042;-60
2023/09/04 11:14:06;;;;;;;3.45;2.00;;;;;;;;;;5027699;28;20057;-60
2023/09/04 11:16:38;;;;;;;2.75;1.70;;;;;;;;;;5027439;28;20056;-60
2023/09/04 11:19:10;;;;;;;2.15;1.40;;;;;;;;;;5027435;28;20060;-60
2023/09/04 11:21:36;;;;;;;3.50;2.13;;;;;;;;;;5027828;28;20053;-60
2023/09/04 11:24:04;;;;;;;2.47;1.63;;;;;;;;;;5027978;28;20046;-60
2023/09/04 11:26:30;;;;;;;3.92;1.70;;;;;;;;;;5027395;28;20103;-60
2023/09/04 11:28:57;;;;;;;3.10;1.75;;;;;;;;;;5031426;28;20046;-59
2023/09/04 11:31:26;;;;;;;3.75;1.83;;;;;;;;;;5031786;28;20041;-61
2023/09/04 11:33:52;;;;;;;4.35;1.80;;;;;;;;;;5031997;28;21114;-60
2023/09/04 11:36:19;;;;;;;3.10;1.77;;;;;;;;;;5031823;28;20046;-60
2023/09/04 11:38:45;;;;;;;4.32;1.90;;;;;;;;;;5031196;28;20041;-61
2023/09/04 11:41:15;;;;;;;4.18;2.08;;;;;;;;;;5031739;28;20483;-60
2023/09/04 11:43:41;;;;;;;2.83;2.10;;;;;;;;;;5063760;28;20048;-60
2023/09/04 11:46:08;;;;;;;2.47;1.88;;;;;;;;;;5031432;28;20096;-60
2023/09/04 11:48:35;;;;;;;3.28;2.03;;;;;;;;;;5031512;28;20527;-61
2023/09/04 11:51:01;;;;;;;5.22;1.92;;;;;;;;;;5030760;28;20053;-61
2023/09/04 11:53:27;;;;;;;3.55;2.22;;;;;;;;;;5031517;28;20053;-61
2023/09/04 11:55:54;;;;;;;3.33;2.15;;;;;;;;;;5031435;28;20415;-61
2023/09/04 11:58:21;;;;;;;4.93;2.00;;;;;;;;;;5031493;28;20045;-61
2023/09/04 12:00:47;;;;;;;2.60;1.60;;;;;;;;;;5031307;28;20499;-60
2023/09/04 12:03:13;;;;;;;4.63;1.95;;;;;;;;;;5030864;28;20041;-60
2023/09/04 12:05:40;;;;;;;2.22;1.50;;;;;;;;;;5031305;28;20045;-60
2023/09/04 12:08:06;;;;;;;2.95;1.80;;;;;;;;;;5030872;28;20140;-60
2023/09/04 12:10:33;;;;;;;3.45;1.60;;;;;;;;;;5031018;28;20053;-60
2023/09/04 12:13:00;;;;;;;3.78;1.70;;;;;;;;;;5031073;28;20393;-60
2023/09/04 12:15:27;;;;;;;4.28;1.95;;;;;;;;;;5030997;28;20050;-60
2023/09/04 12:17:53;;;;;;;5.30;1.60;;;;;;;;;;5030255;28;20558;-60
2023/09/04 12:20:19;;;;;;;3.10;1.85;;;;;;;;;;5031359;28;20049;-61
2023/09/04 12:22:56;;;;;;;2.20;1.30;;;;;;;;;;5031007;28;20045;-61
2023/09/04 12:25:25;;;;;;;3.55;1.70;;;;;;;;;;5031198;28;20072;-60
2023/09/04 12:27:51;;;;;;;2.85;1.40;;;;;;;;;;5031021;28;20089;-60
2023/09/04 12:30:17;;;;;;;3.13;1.30;;;;;;;;;;5030382;28;20411;-60
2023/09/04 12:32:43;;;;;;;6.85;1.70;;;;;;;;;;5030836;28;20057;-60
2023/09/04 12:35:10;;;;;;;2.83;1.58;;;;;;;;;;5030852;28;20577;-60
2023/09/04 12:37:36;;;;;;;3.17;1.77;;;;;;;;;;5030682;28;20084;-60
2023/09/04 12:40:03;;;;;;;3.60;1.75;;;;;;;;;;5029549;28;20076;-61
2023/09/04 12:42:29;;;;;;;2.60;1.50;;;;;;;;;;5030840;28;20046;-60
2023/09/04 12:44:55;;;;;;;4.20;1.77;;;;;;;;;;5030625;28;20056;-60
2023/09/04 12:47:21;;;;;;;3.00;1.45;;;;;;;;;;5030198;28;20045;-60
2023/09/04 12:49:50;;;;;;;2.40;1.60;;;;;;;;;;5030344;28;20052;-60
2023/09/04 12:52:16;;;;;;;4.03;1.40;;;;;;;;;;5030333;28;20045;-60
2023/09/04 12:54:43;;;;;;;2.45;1.30;;;;;;;;;;5029719;28;20465;-61
2023/09/04 12:57:09;;;;;;;2.55;1.30;;;;;;;;;;5030268;28;20092;-61
2023/09/04 12:59:35;;;;;;;1.75;1.10;;;;;;;;;;5030155;28;20050;-61
2023/09/04 13:02:01;;;;;;;3.15;1.20;;;;;;;;;;5030353;28;20108;-61
2023/09/04 13:04:27;;;;;;;4.35;1.20;;;;;;;;;;5029687;28;20503;-61
2023/09/04 13:06:53;;;;;;;3.03;1.33;;;;;;;;;;5029881;28;20057;-60
2023/09/04 13:09:19;;;;;;;1.63;0.93;;;;;;;;;;5030273;28;20526;-61
2023/09/04 13:11:45;;;;;;;3.08;1.13;;;;;;;;;;5030103;28;20037;-60
2023/09/04 13:14:11;;;;;;;3.30;1.38;;;;;;;;;;5029838;28;20049;-60
2023/09/04 13:16:37;;;;;;;2.42;1.20;;;;;;;;;;5029742;28;20053;-60
2023/09/04 13:19:03;;;;;;;3.05;1.23;;;;;;;;;;5029681;28;20049;-60
2023/09/04 13:21:29;;;;;;;2.90;1.20;;;;;;;;;;5030053;28;20091;-60
2023/09/04 13:23:55;;;;;;;3.00;1.45;;;;;;;;;;5029515;28;20049;-61
2023/09/04 13:26:21;;;;;;;2.90;0.98;;;;;;;;;;5030221;28;20049;-60
2023/09/04 13:28:47;;;;;;;3.35;1.20;;;;;;;;;;5029394;28;20091;-60
2023/09/04 13:31:15;;;;;;;2.58;1.10;;;;;;;;;;5029380;28;20402;-60
2023/09/04 13:33:41;;;;;;;2.47;1.13;;;;;;;;;;5029602;28;20389;-60
2023/09/04 13:36:07;;;;;;;4.93;1.30;;;;;;;;;;5029913;28;20052;-60
2023/09/04 13:38:33;;;;;;;2.00;1.27;;;;;;;;;;5029539;28;20034;-60
2023/09/04 13:40:59;;;;;;;2.65;1.25;;;;;;;;;;5028672;28;20048;-60
2023/09/04 13:43:25;;;;;;;1.85;1.20;;;;;;;;;;5029842;28;20392;-60
2023/09/04 13:45:51;;;;;;;1.83;1.13;;;;;;;;;;5029450;28;20037;-60
2023/09/04 13:48:17;;;;;;;2.28;1.27;;;;;;;;;;5028688;28;20037;-60
2023/09/04 13:50:43;;;;;;;2.33;1.63;;;;;;;;;;5029000;28;20049;-60
2023/09/04 13:53:09;;;;;;;2.22;1.40;;;;;;;;;;5029031;28;20049;-60
2023/09/04 13:55:35;;;;;;;3.05;1.23;;;;;;;;;;5029185;28;20129;-60
2023/09/04 13:58:01;;;;;;;2.25;1.48;;;;;;;;;;5029117;28;20103;-61
2023/09/04 14:00:27;;;;;;;3.65;1.40;;;;;;;;;;5028749;28;20041;-61
2023/09/04 14:02:54;;;;;;;2.92;1.25;;;;;;;;;;5028825;28;20037;-60
2023/09/04 14:05:20;;;;;;;2.92;1.48;;;;;;;;;;5029168;28;20037;-60
2023/09/04 14:07:46;;;;;;;2.55;1.40;;;;;;;;;;5028903;28;20490;-61
2023/09/04 14:10:12;;;;;;;2.58;1.50;;;;;;;;;;5028262;28;20073;-61
2023/09/04 14:12:38;;;;;;;2.58;1.48;;;;;;;;;;5028572;28;20135;-60
2023/09/04 14:15:05;;;;;;;1.95;1.30;;;;;;;;;;5028900;28;20503;-60
2023/09/04 14:17:31;;;;;;;4.28;1.60;;;;;;;;;;5028824;28;20367;-60
2023/09/04 14:19:57;;;;;;;2.63;1.48;;;;;;;;;;5027934;28;20046;-60
2023/09/04 14:22:23;;;;;;;2.30;1.27;;;;;;;;;;5028764;28;20064;-61
2023/09/04 14:24:51;;;;;;;2.38;1.48;;;;;;;;;;5028511;28;20499;-61
2023/09/04 14:27:17;;;;;;;4.05;2.00;;;;;;;;;;5028312;28;20045;-61
2023/09/04 14:29:43;;;;;;;4.78;1.65;;;;;;;;;;5028397;28;20060;-60